Wheeler, Michigan
Current Conditions -  °F | °C
As of 4:14 PM on Tuesday 21 Oct 2014 (Local Time) from KAMN Reporting Station
Scattered Clouds Scattered Clouds  
Wind Chill: 45°   Ceiling: Unl
Heat Index: 49°   Visibility: 10mi
Dew Point: 33°   Wind: 9mph
Humidity: 53%   Direction: 10°N
Pressure: 30.14"   Gusts: NA
Location:  43.41°N, 84.44°W
Report Text: KAMN 212014Z AUTO 01008KT 10SM SCT037 10/01 A3014 RMK AO2 T00960005
Loading
Personal Weather Stations






























Interactive Weather Map
Tropical Storm Tracking
New forecast layout! Learn more

10-Day Weather Forecast

Advertisements
Track Severe Weather on mobile